createdAt,value
2019-03-30T00:01:01.353Z,30.63
2019-03-30T00:03:29.793Z,24.47
2019-03-30T00:05:58.190Z,23.50
2019-03-30T00:08:26.557Z,23.65
2019-03-30T00:10:54.917Z,29.23
2019-03-30T00:13:23.254Z,33.10
2019-03-30T00:15:51.657Z,22.50
2019-03-30T00:18:20.045Z,29.50
2019-03-30T00:20:48.342Z,28.12
2019-03-30T00:23:16.784Z,24.12
2019-03-30T00:25:45.155Z,20.30
2019-03-30T00:28:13.550Z,23.25
2019-03-30T00:30:41.961Z,23.33
2019-03-30T00:33:10.361Z,27.87
2019-03-30T00:35:38.725Z,30.82
2019-03-30T00:38:07.113Z,16.07
2019-03-30T00:40:36.057Z,21.15
2019-03-30T00:43:04.442Z,24.87
2019-03-30T00:45:32.861Z,13.72
2019-03-30T00:48:01.163Z,28.27
2019-03-30T00:50:29.537Z,27.95
2019-03-30T00:52:57.849Z,24.75
2019-03-30T00:55:26.249Z,24.87
2019-03-30T00:57:55.006Z,21.33
2019-03-30T01:00:23.399Z,21.48
2019-03-30T01:02:51.777Z,24.85
2019-03-30T01:05:20.194Z,29.17
2019-03-30T01:07:48.558Z,27.77
2019-03-30T01:10:17.028Z,34.03
2019-03-30T01:12:45.535Z,22.98
2019-03-30T01:15:14.114Z,21.36
2019-03-30T01:17:42.546Z,14.38
2019-03-30T01:20:10.898Z,22.62
2019-03-30T01:22:39.266Z,31.60
2019-03-30T01:25:07.898Z,20.75
2019-03-30T01:27:36.252Z,23.95
2019-03-30T01:30:05.310Z,25.43
2019-03-30T01:32:35.133Z,21.60
2019-03-30T01:35:04.597Z,27.45
2019-03-30T01:37:32.972Z,26.93
2019-03-30T01:40:01.372Z,21.05
2019-03-30T01:42:29.758Z,24.02
2019-03-30T01:44:58.141Z,30.20
2019-03-30T01:47:26.523Z,25.40
2019-03-30T01:49:54.813Z,28.38
2019-03-30T01:52:23.269Z,25.27
2019-03-30T01:54:51.677Z,20.05
2019-03-30T01:57:20.041Z,25.17
2019-03-30T01:59:48.501Z,24.12
2019-03-30T02:02:16.949Z,33.98
2019-03-30T02:04:45.419Z,22.98
2019-03-30T02:07:13.787Z,31.67
2019-03-30T02:09:42.183Z,25.07
2019-03-30T02:12:10.546Z,21.37
2019-03-30T02:14:38.932Z,27.13
2019-03-30T02:17:07.344Z,29.67
2019-03-30T02:19:35.726Z,20.12
2019-03-30T02:22:04.126Z,25.43
2019-03-30T02:24:32.524Z,17.37
2019-03-30T02:27:00.887Z,21.48
2019-03-30T02:29:29.254Z,18.87
2019-03-30T02:31:57.643Z,23.92
2019-03-30T02:34:26.091Z,24.85
2019-03-30T02:36:54.483Z,17.17
2019-03-30T02:39:22.931Z,23.45
2019-03-30T02:41:51.261Z,31.80
2019-03-30T02:44:19.626Z,27.25
2019-03-30T02:46:48.021Z,29.27
2019-03-30T02:49:16.406Z,26.07
2019-03-30T02:51:44.954Z,25.62
2019-03-30T02:54:13.386Z,24.65
2019-03-30T02:56:41.780Z,32.23
2019-03-30T02:59:10.141Z,28.27
2019-03-30T03:01:38.521Z,26.27
2019-03-30T03:04:06.893Z,32.37
2019-03-30T03:06:35.227Z,21.75
2019-03-30T03:09:05.609Z,25.37
2019-03-30T03:11:33.974Z,24.20
2019-03-30T03:14:03.148Z,26.73
2019-03-30T03:16:31.515Z,37.42
2019-03-30T03:18:59.883Z,27.93
2019-03-30T03:21:28.279Z,29.02
2019-03-30T03:23:56.715Z,26.70
2019-03-30T03:26:25.180Z,35.33
2019-03-30T03:28:53.550Z,27.25
2019-03-30T03:31:21.947Z,27.85
2019-03-30T03:33:50.338Z,30.45
2019-03-30T03:36:18.934Z,31.07
2019-03-30T03:38:47.257Z,27.20
2019-03-30T03:41:15.635Z,18.55
2019-03-30T03:43:44.014Z,29.03
2019-03-30T03:46:12.460Z,26.68
2019-03-30T03:48:40.839Z,31.63
2019-03-30T03:51:24.970Z,27.02
2019-03-30T03:53:40.035Z,31.68
2019-03-30T03:56:08.489Z,28.02
2019-03-30T03:58:36.880Z,27.10
2019-03-30T04:01:05.247Z,23.20
2019-03-30T04:03:33.852Z,28.40
2019-03-30T04:06:05.214Z,32.33
2019-03-30T04:08:36.832Z,26.87
2019-03-30T04:11:05.347Z,24.07
2019-03-30T04:13:33.713Z,27.95
2019-03-30T04:16:02.078Z,24.27
2019-03-30T04:18:30.491Z,24.67
2019-03-30T04:20:58.879Z,24.47
2019-03-30T04:23:27.248Z,30.72
2019-03-30T04:25:55.651Z,26.70
2019-03-30T04:28:24.025Z,28.07
2019-03-30T04:30:52.450Z,32.53
2019-03-30T04:33:20.840Z,22.87
2019-03-30T04:35:49.201Z,25.77
2019-03-30T04:38:18.062Z,21.60
2019-03-30T04:40:46.453Z,22.77
2019-03-30T04:43:14.840Z,21.70
2019-03-30T04:45:43.217Z,32.07
2019-03-30T04:48:11.627Z,22.82
2019-03-30T04:50:40.070Z,26.57
2019-03-30T04:53:08.446Z,29.98
2019-03-30T04:55:36.947Z,18.25
2019-03-30T04:58:08.904Z,23.00
2019-03-30T05:00:35.358Z,24.12
2019-03-30T05:03:03.744Z,29.77
2019-03-30T05:05:32.129Z,30.70
2019-03-30T05:08:00.579Z,32.20
2019-03-30T05:10:28.974Z,24.77
2019-03-30T05:12:57.350Z,34.40
2019-03-30T05:15:25.728Z,29.77
2019-03-30T05:17:54.105Z,29.92
2019-03-30T05:20:22.490Z,30.30
2019-03-30T05:22:51.422Z,26.95
2019-03-30T05:25:19.866Z,26.40
2019-03-30T05:27:48.222Z,35.25
2019-03-30T05:30:16.710Z,29.67
2019-03-30T05:32:45.104Z,38.40
2019-03-30T05:35:13.910Z,33.92
2019-03-30T05:37:42.431Z,32.20
2019-03-30T05:40:10.765Z,27.90
2019-03-30T05:42:39.133Z,25.62
2019-03-30T05:45:07.593Z,23.77
2019-03-30T05:47:35.957Z,29.03
2019-03-30T05:50:06.199Z,20.48
2019-03-30T05:52:35.758Z,27.17
2019-03-30T05:55:04.533Z,27.27
2019-03-30T05:57:33.031Z,22.98
2019-03-30T06:00:01.497Z,22.65
2019-03-30T06:02:29.857Z,26.17
2019-03-30T06:04:58.671Z,24.55
2019-03-30T06:07:27.209Z,24.32
2019-03-30T06:09:55.598Z,31.48
2019-03-30T06:12:24.031Z,27.67
2019-03-30T06:14:52.422Z,24.07
2019-03-30T06:17:20.871Z,25.25
2019-03-30T06:19:49.361Z,20.82
2019-03-30T06:22:17.725Z,37.30
2019-03-30T06:24:46.112Z,25.25
2019-03-30T06:27:14.507Z,22.05
2019-03-30T06:29:42.886Z,24.20
2019-03-30T06:32:11.307Z,23.40
2019-03-30T06:34:39.605Z,28.20
2019-03-30T06:37:08.014Z,25.32
2019-03-30T06:39:37.164Z,26.68
2019-03-30T06:42:05.645Z,27.93
2019-03-30T06:44:34.049Z,29.13
2019-03-30T06:47:02.441Z,33.40
2019-03-30T06:49:30.838Z,33.98
2019-03-30T06:51:59.251Z,21.87
2019-03-30T06:54:28.021Z,35.83
2019-03-30T06:56:56.412Z,27.73
2019-03-30T06:59:24.798Z,24.75
2019-03-30T07:01:53.175Z,32.50
2019-03-30T07:04:21.550Z,21.60
2019-03-30T07:06:49.914Z,25.30
2019-03-30T07:09:18.866Z,32.50
2019-03-30T07:11:52.942Z,35.05
2019-03-30T07:14:36.217Z,19.57
2019-03-30T07:17:08.790Z,23.25
2019-03-30T07:19:40.480Z,30.10
2019-03-30T07:22:11.392Z,24.53
2019-03-30T07:24:47.258Z,27.65
2019-03-30T07:27:17.308Z,31.80
2019-03-30T07:29:57.261Z,19.12
2019-03-30T07:32:28.580Z,21.02
2019-03-30T07:34:59.769Z,30.17
2019-03-30T07:37:28.177Z,23.77
2019-03-30T07:39:56.547Z,27.07
2019-03-30T07:42:24.979Z,21.30
2019-03-30T07:44:53.365Z,24.52
2019-03-30T07:47:22.022Z,29.10
2019-03-30T07:49:50.398Z,31.40
2019-03-30T07:52:18.830Z,25.05
2019-03-30T07:54:47.249Z,29.32
2019-03-30T07:57:17.376Z,28.45
2019-03-30T07:59:45.676Z,25.82
2019-03-30T08:02:14.118Z,19.25
2019-03-30T08:04:42.500Z,20.60
2019-03-30T08:07:10.859Z,20.68
2019-03-30T08:09:40.251Z,26.35
2019-03-30T08:12:08.618Z,17.27
2019-03-30T08:14:36.940Z,26.75
2019-03-30T08:17:05.417Z,28.92
2019-03-30T08:19:33.779Z,30.80
2019-03-30T08:22:02.103Z,34.95
2019-03-30T08:24:30.600Z,36.17
2019-03-30T08:26:59.034Z,29.23
2019-03-30T08:29:27.335Z,39.55
2019-03-30T08:31:55.739Z,24.40
2019-03-30T08:34:24.131Z,32.77
2019-03-30T08:36:52.545Z,32.10
2019-03-30T08:39:21.029Z,32.50
2019-03-30T08:41:49.417Z,28.10
2019-03-30T08:44:17.803Z,30.35
2019-03-30T08:46:46.171Z,31.20
2019-03-30T08:49:14.620Z,29.00
2019-03-30T08:51:43.000Z,25.50
2019-03-30T08:54:11.437Z,34.03
2019-03-30T08:56:39.948Z,25.37
2019-03-30T08:59:08.355Z,26.55
2019-03-30T09:01:36.843Z,23.56
2019-03-30T09:04:05.178Z,30.77
2019-03-30T09:06:33.490Z,22.95
2019-03-30T09:09:01.867Z,25.35
2019-03-30T09:11:30.248Z,18.92
2019-03-30T09:13:58.707Z,32.58
2019-03-30T09:16:27.000Z,21.25
2019-03-30T09:18:55.377Z,19.47
2019-03-30T09:21:23.663Z,26.62
2019-03-30T09:23:52.073Z,27.50
2019-03-30T09:26:20.415Z,22.62
2019-03-30T09:28:48.829Z,21.95
2019-03-30T09:31:17.217Z,26.40
2019-03-30T09:33:45.710Z,25.75
2019-03-30T09:36:14.081Z,23.33
2019-03-30T09:38:42.395Z,25.57
2019-03-30T09:41:10.781Z,26.87
2019-03-30T09:43:39.148Z,29.05
2019-03-30T09:46:07.663Z,32.58
2019-03-30T09:48:36.034Z,29.95
2019-03-30T09:51:04.510Z,30.57
2019-03-30T09:53:32.878Z,29.65
2019-03-30T09:56:01.337Z,22.90
2019-03-30T09:58:29.779Z,31.27
2019-03-30T10:00:58.224Z,23.62
2019-03-30T10:03:26.590Z,25.75
2019-03-30T10:05:54.954Z,26.35
2019-03-30T10:08:23.348Z,23.73
2019-03-30T10:10:51.714Z,33.38
2019-03-30T10:13:20.093Z,30.02
2019-03-30T10:15:48.497Z,23.38
2019-03-30T10:18:16.909Z,22.67
2019-03-30T10:20:45.995Z,18.73
2019-03-30T10:23:14.419Z,21.40
2019-03-30T10:25:42.803Z,24.52
2019-03-30T10:28:11.205Z,21.12
2019-03-30T10:30:39.643Z,23.83
2019-03-30T10:33:07.995Z,21.63
2019-03-30T10:35:36.361Z,24.10
2019-03-30T10:38:05.010Z,21.73
2019-03-30T10:40:33.375Z,16.15
2019-03-30T10:43:01.755Z,18.17
2019-03-30T10:45:30.254Z,23.67
2019-03-30T10:47:58.612Z,22.52
2019-03-30T10:50:26.994Z,25.07
2019-03-30T10:52:55.374Z,21.23
2019-03-30T10:55:23.770Z,24.97
2019-03-30T10:57:52.142Z,19.70
2019-03-30T11:00:37.142Z,20.77
2019-03-30T11:03:05.507Z,24.65
2019-03-30T11:05:33.906Z,24.82
2019-03-30T11:08:02.333Z,22.32
2019-03-30T11:10:30.708Z,24.98
2019-03-30T11:12:59.075Z,18.75
2019-03-30T11:15:27.458Z,18.37
2019-03-30T11:17:55.877Z,21.55
2019-03-30T11:20:24.173Z,28.55
2019-03-30T11:22:52.541Z,25.43
2019-03-30T11:25:20.911Z,24.12
2019-03-30T11:27:49.974Z,24.20
2019-03-30T11:30:18.336Z,22.77
2019-03-30T11:32:46.741Z,23.98
2019-03-30T11:35:15.173Z,23.50
2019-03-30T11:37:43.613Z,23.83
2019-03-30T11:40:12.095Z,26.13
2019-03-30T11:42:40.517Z,21.10
2019-03-30T11:45:08.978Z,24.82
2019-03-30T11:47:37.429Z,21.95
2019-03-30T11:50:06.934Z,24.52
2019-03-30T11:52:35.383Z,21.87
2019-03-30T11:55:06.061Z,23.32
2019-03-30T11:57:34.385Z,22.90
2019-03-30T12:00:03.137Z,26.93
2019-03-30T12:02:31.540Z,23.15
2019-03-30T12:04:59.994Z,29.32
2019-03-30T12:07:28.454Z,18.62
2019-03-30T12:09:56.846Z,21.80
2019-03-30T12:12:25.174Z,27.37
2019-03-30T12:14:53.576Z,21.75
2019-03-30T12:17:22.040Z,30.00
2019-03-30T12:19:50.476Z,21.40
2019-03-30T12:22:18.913Z,22.50
2019-03-30T12:24:47.273Z,19.45
2019-03-30T12:27:15.679Z,17.25
2019-03-30T12:29:44.662Z,19.70
2019-03-30T12:32:13.237Z,19.90
2019-03-30T12:34:41.617Z,15.43
2019-03-30T12:37:10.081Z,16.67
2019-03-30T12:39:38.444Z,16.57
2019-03-30T12:42:06.877Z,18.47
2019-03-30T12:44:35.294Z,18.85
2019-03-30T12:47:04.094Z,27.60
2019-03-30T12:49:32.456Z,20.77
2019-03-30T12:52:00.882Z,22.45
2019-03-30T12:54:29.335Z,22.20
2019-03-30T12:56:57.778Z,28.10
2019-03-30T12:59:26.219Z,26.37
2019-03-30T13:01:54.546Z,22.77
2019-03-30T13:04:22.945Z,32.85
2019-03-30T13:06:51.321Z,27.15
2019-03-30T13:09:19.757Z,26.07
2019-03-30T13:11:48.137Z,29.27
2019-03-30T13:14:16.521Z,29.37
2019-03-30T13:16:44.821Z,27.87
2019-03-30T13:19:13.215Z,32.67
2019-03-30T13:21:52.075Z,25.25
2019-03-30T13:24:11.724Z,28.98
2019-03-30T13:26:41.103Z,23.95
2019-03-30T13:29:09.636Z,28.42
2019-03-30T13:31:38.025Z,27.30
2019-03-30T13:34:06.462Z,25.50
2019-03-30T13:36:39.158Z,22.90
2019-03-30T13:39:08.297Z,30.08
2019-03-30T13:41:36.888Z,27.55
2019-03-30T13:44:06.138Z,26.97
2019-03-30T13:46:34.551Z,28.47
2019-03-30T13:49:03.265Z,29.67
2019-03-30T13:51:31.741Z,29.90
2019-03-30T13:54:00.108Z,34.75
2019-03-30T13:56:28.557Z,34.48
2019-03-30T13:58:56.925Z,29.90
2019-03-30T14:01:25.401Z,28.27
2019-03-30T14:03:53.783Z,32.95
2019-03-30T14:06:22.384Z,32.85
2019-03-30T14:08:50.770Z,29.42
2019-03-30T14:11:20.109Z,38.48
2019-03-30T14:13:48.514Z,37.50
2019-03-30T14:16:17.026Z,33.40
2019-03-30T14:18:45.328Z,34.50
2019-03-30T14:21:13.774Z,32.08
2019-03-30T14:23:43.551Z,42.37
2019-03-30T14:26:12.183Z,42.85
2019-03-30T14:28:40.548Z,42.80
2019-03-30T14:31:08.867Z,37.65
2019-03-30T14:33:37.225Z,29.57
2019-03-30T14:36:05.589Z,42.45
2019-03-30T14:38:33.893Z,40.90
2019-03-30T14:41:03.824Z,37.70
2019-03-30T14:43:32.501Z,46.15
2019-03-30T14:46:00.855Z,47.47
2019-03-30T14:48:29.223Z,44.00
2019-03-30T14:50:58.094Z,45.85
2019-03-30T14:53:26.592Z,44.20
2019-03-30T14:55:55.013Z,50.92
2019-03-30T14:58:23.475Z,33.80
2019-03-30T15:00:51.840Z,40.55
2019-03-30T15:03:20.226Z,35.25
2019-03-30T15:05:48.785Z,45.48
2019-03-30T15:08:17.177Z,36.50
2019-03-30T15:10:45.600Z,37.53
2019-03-30T15:13:14.066Z,45.75
2019-03-30T15:15:42.364Z,47.83
2019-03-30T15:18:10.835Z,35.95
2019-03-30T15:20:39.274Z,47.45
2019-03-30T15:23:07.646Z,44.60
2019-03-30T15:25:36.035Z,52.20
2019-03-30T15:28:04.473Z,48.00
2019-03-30T15:30:32.814Z,54.95
2019-03-30T15:33:03.359Z,53.55
2019-03-30T15:35:31.674Z,58.23
2019-03-30T15:38:00.024Z,61.07
2019-03-30T15:40:28.531Z,52.33
2019-03-30T15:42:56.967Z,51.08
2019-03-30T15:45:25.387Z,55.78
2019-03-30T15:47:53.759Z,58.78
2019-03-30T15:50:22.247Z,55.05
2019-03-30T15:52:50.713Z,66.20
2019-03-30T15:55:19.082Z,65.12
2019-03-30T15:57:47.578Z,70.22
2019-03-30T16:00:16.150Z,55.13
2019-03-30T16:02:44.519Z,63.78
2019-03-30T16:05:15.430Z,63.73
2019-03-30T16:07:43.022Z,72.47
2019-03-30T16:10:12.000Z,64.58
2019-03-30T16:12:40.392Z,73.90
2019-03-30T16:15:09.138Z,67.40
2019-03-30T16:17:37.572Z,79.22
2019-03-30T16:20:07.538Z,83.47
2019-03-30T16:22:35.962Z,75.47
2019-03-30T16:25:05.842Z,77.92
2019-03-30T16:27:34.257Z,85.60
2019-03-30T16:30:02.791Z,90.65
2019-03-30T16:32:32.068Z,83.30
2019-03-30T16:35:00.485Z,87.55
2019-03-30T16:37:28.919Z,91.15
2019-03-30T16:39:57.347Z,87.60
2019-03-30T16:42:25.795Z,95.30
2019-03-30T16:44:54.241Z,94.93
2019-03-30T16:47:22.691Z,101.20
2019-03-30T16:49:51.125Z,96.17
2019-03-30T16:52:19.496Z,105.97
2019-03-30T16:54:47.919Z,111.47
2019-03-30T16:57:16.394Z,107.37
2019-03-30T16:59:44.838Z,104.27
2019-03-30T17:02:13.228Z,95.05
2019-03-30T17:04:41.725Z,99.55
2019-03-30T17:07:10.136Z,102.23
2019-03-30T17:09:38.490Z,90.75
2019-03-30T17:12:06.869Z,108.37
2019-03-30T17:14:35.260Z,100.80
2019-03-30T17:17:03.626Z,93.27
2019-03-30T17:19:32.016Z,81.13
2019-03-30T17:22:00.465Z,91.42
2019-03-30T17:24:28.934Z,82.78
2019-03-30T17:26:57.305Z,95.30
2019-03-30T17:29:26.105Z,90.12
2019-03-30T17:31:54.528Z,95.10
2019-03-30T17:34:22.834Z,98.42
2019-03-30T17:36:51.229Z,96.72
2019-03-30T17:39:19.611Z,101.42
2019-03-30T17:41:47.993Z,70.32
2019-03-30T17:44:16.369Z,95.65
2019-03-30T17:46:44.791Z,84.10
2019-03-30T17:49:13.183Z,85.42
2019-03-30T17:51:41.553Z,83.10
2019-03-30T17:54:10.152Z,84.03
2019-03-30T17:56:38.554Z,82.40
2019-03-30T17:59:06.954Z,70.80
2019-03-30T18:01:35.350Z,63.55
2019-03-30T18:04:03.781Z,66.55
2019-03-30T18:06:32.289Z,66.67
2019-03-30T18:09:00.768Z,62.95
2019-03-30T18:11:29.243Z,62.50
2019-03-30T18:13:57.622Z,62.98
2019-03-30T18:16:26.042Z,55.83
2019-03-30T18:18:54.537Z,56.10
2019-03-30T18:21:22.865Z,50.55
2019-03-30T18:23:51.231Z,58.13
2019-03-30T18:26:20.221Z,57.03
2019-03-30T18:28:48.723Z,52.88
2019-03-30T18:31:17.240Z,56.83
2019-03-30T18:33:47.276Z,49.73
2019-03-30T18:36:16.314Z,49.75
2019-03-30T18:38:45.410Z,55.70
2019-03-30T18:41:13.823Z,47.17
2019-03-30T18:44:03.255Z,53.47
2019-03-30T18:46:31.663Z,48.02
2019-03-30T18:49:00.141Z,52.85
2019-03-30T18:51:28.625Z,46.70
2019-03-30T18:53:57.114Z,47.85
2019-03-30T18:56:28.060Z,50.65
2019-03-30T19:01:23.016Z,53.28
2019-03-30T19:03:51.357Z,51.85
2019-03-30T19:06:19.802Z,44.35
2019-03-30T19:08:48.444Z,49.73
2019-03-30T19:11:16.882Z,48.73
2019-03-30T19:13:46.486Z,45.73
2019-03-30T19:16:14.866Z,44.10
2019-03-30T19:18:43.202Z,47.10
2019-03-30T19:21:11.587Z,41.55
2019-03-30T19:23:40.083Z,49.73
2019-03-30T19:26:09.086Z,42.70
2019-03-30T19:28:37.555Z,45.35
2019-03-30T19:31:05.937Z,42.38
2019-03-30T19:33:34.369Z,41.50
2019-03-30T19:36:02.707Z,36.48
2019-03-30T19:38:31.081Z,36.35
2019-03-30T19:40:59.885Z,32.90
2019-03-30T19:43:28.291Z,22.87
2019-03-30T19:45:56.677Z,16.90
2019-03-30T19:48:25.057Z,29.72
2019-03-30T19:50:53.486Z,23.90
2019-03-30T19:53:21.857Z,27.95
2019-03-30T19:55:50.391Z,24.37
2019-03-30T19:58:18.755Z,21.07
2019-03-30T20:00:47.118Z,19.30
2019-03-30T20:03:15.590Z,25.65
2019-03-30T20:05:44.723Z,22.82
2019-03-30T20:08:13.264Z,25.68
2019-03-30T20:10:41.757Z,25.35
2019-03-30T20:13:10.214Z,24.77
2019-03-30T20:15:38.696Z,24.02
2019-03-30T20:18:07.071Z,25.75
2019-03-30T20:20:35.534Z,26.02
2019-03-30T20:23:03.852Z,24.18
2019-03-30T20:25:32.226Z,26.62
2019-03-30T20:28:00.616Z,24.80
2019-03-30T20:30:29.037Z,16.42
2019-03-30T20:32:57.542Z,21.77
2019-03-30T20:35:25.983Z,23.00
2019-03-30T20:37:54.496Z,16.80
2019-03-30T20:40:22.927Z,17.30
2019-03-30T20:42:51.283Z,17.02
2019-03-30T20:45:19.663Z,12.78
2019-03-30T20:47:48.033Z,15.38
2019-03-30T20:50:16.405Z,13.40
2019-03-30T20:52:44.797Z,12.93
2019-03-30T20:55:13.166Z,15.45
2019-03-30T20:57:41.561Z,11.63
2019-03-30T21:00:10.495Z,16.67
2019-03-30T21:02:39.167Z,17.06
2019-03-30T21:05:07.550Z,11.75
2019-03-30T21:07:35.862Z,10.43
2019-03-30T21:10:07.018Z,10.23
2019-03-30T21:12:35.387Z,14.67
2019-03-30T21:15:04.614Z,11.12
2019-03-30T21:17:33.072Z,13.48
2019-03-30T21:20:01.467Z,9.70
2019-03-30T21:22:29.861Z,14.05
2019-03-30T21:24:58.221Z,10.88
2019-03-30T21:27:26.611Z,8.80
2019-03-30T21:29:55.310Z,12.15
2019-03-30T21:32:23.685Z,13.80
2019-03-30T21:34:51.985Z,9.85
2019-03-30T21:37:20.443Z,9.80
2019-03-30T21:39:48.806Z,7.00
2019-03-30T21:42:17.951Z,10.72
2019-03-30T21:44:46.387Z,9.98
2019-03-30T21:47:14.778Z,8.48
2019-03-30T21:49:43.141Z,10.93
2019-03-30T21:52:11.537Z,15.18
2019-03-30T21:54:39.902Z,12.30
2019-03-30T21:57:08.226Z,13.03
2019-03-30T21:59:36.675Z,13.58
2019-03-30T22:02:05.126Z,10.95
2019-03-30T22:04:33.561Z,11.28
2019-03-30T22:07:01.969Z,10.45
2019-03-30T22:09:30.397Z,9.28
2019-03-30T22:11:58.793Z,8.03
2019-03-30T22:14:27.179Z,11.35
2019-03-30T22:16:55.624Z,10.82
2019-03-30T22:19:23.955Z,9.55
2019-03-30T22:21:53.174Z,13.95
2019-03-30T22:24:21.598Z,9.60
2019-03-30T22:26:49.966Z,9.20
2019-03-30T22:29:18.378Z,12.05
2019-03-30T22:31:46.738Z,7.03
2019-03-30T22:34:15.184Z,9.45
2019-03-30T22:36:43.600Z,9.78
2019-03-30T22:39:11.979Z,9.37
2019-03-30T22:41:40.358Z,12.10
2019-03-30T22:44:08.807Z,9.85
2019-03-30T22:46:37.223Z,9.03
2019-03-30T22:49:05.635Z,9.48
2019-03-30T22:51:34.023Z,9.23
2019-03-30T22:54:02.461Z,10.82
2019-03-30T22:56:30.925Z,8.75
2019-03-30T22:58:59.321Z,5.10
2019-03-30T23:01:27.727Z,8.13
2019-03-30T23:03:56.121Z,12.23
2019-03-30T23:06:24.501Z,6.78
2019-03-30T23:08:52.789Z,10.88
2019-03-30T23:11:21.176Z,3.20
2019-03-30T23:13:49.555Z,4.67
2019-03-30T23:16:17.940Z,7.12
2019-03-30T23:18:47.116Z,2.62
2019-03-30T23:21:15.478Z,8.38
2019-03-30T23:23:43.850Z,7.12
2019-03-30T23:26:12.255Z,6.90
2019-03-30T23:28:40.792Z,9.33
2019-03-30T23:31:09.080Z,7.60
2019-03-30T23:33:37.389Z,6.33
2019-03-30T23:36:05.963Z,5.83
2019-03-30T23:38:34.355Z,9.48
2019-03-30T23:41:02.708Z,5.65
2019-03-30T23:43:31.023Z,6.72
2019-03-30T23:45:59.377Z,7.90
2019-03-30T23:48:27.689Z,5.45
2019-03-30T23:50:56.070Z,6.25
2019-03-30T23:53:27.211Z,4.23
2019-03-30T23:55:55.587Z,4.00
2019-03-30T23:58:24.062Z,9.58
